Time;durP1;ratioP1;P1;durP2;ratioP2;P2;SDS_P1;SDS_P2;PMS_P1;PMS_P2;Temp;Humidity;BMP_temperature;BMP_pressure;BME280_temperature;BME280_humidity;BME280_pressure;Samples;Min_cycle;Max_cycle;Signal;HPM_P1;HPM_P2
2022/08/17 00:00:46;;;;;;;7.57;5.00;;;;;;;18.46;95.89;96052.84;5027153;28;20046;-65
2022/08/17 00:03:16;;;;;;;7.80;4.72;;;;;;;18.31;100.00;96046.09;5018987;28;20478;-65
2022/08/17 00:05:46;;;;;;;6.60;4.90;;;;;;;18.08;100.00;96050.63;5012985;28;20073;-66
2022/08/17 00:08:13;;;;;;;11.25;5.57;;;;;;;17.57;100.00;96039.88;5009293;28;20072;-66
2022/08/17 00:10:40;;;;;;;8.40;5.30;;;;;;;17.43;100.00;96031.06;5010927;28;20049;-65
2022/08/17 00:13:13;;;;;;;8.70;5.53;;;;;;;16.97;100.00;96028.81;5018005;28;20539;-63
2022/08/17 00:15:38;;;;;;;11.15;5.15;;;;;;;16.73;100.00;96022.53;5022673;28;20072;-66
2022/08/17 00:18:04;;;;;;;9.00;5.38;;;;;;;16.86;100.00;96025.50;5010774;28;20069;-64
2022/08/17 00:20:30;;;;;;;7.65;5.18;;;;;;;16.95;100.00;96020.16;5012658;28;20522;-66
2022/08/17 00:23:04;;;;;;;7.10;4.90;;;;;;;17.13;100.00;96019.81;5022240;28;20107;-66
2022/08/17 00:25:29;;;;;;;8.18;4.82;;;;;;;17.26;100.00;96011.63;5028221;28;20050;-66
2022/08/17 00:27:55;;;;;;;7.40;4.60;;;;;;;17.31;100.00;96013.91;5015346;28;20049;-66
2022/08/17 00:30:20;;;;;;;8.60;5.03;;;;;;;17.19;100.00;96009.03;5016376;28;20509;-65
2022/08/17 00:32:46;;;;;;;8.98;5.55;;;;;;;17.05;100.00;96006.56;5013305;28;20041;-66
2022/08/17 00:35:16;;;;;;;10.20;5.57;;;;;;;16.90;100.00;96006.06;5017985;28;20049;-65
2022/08/17 00:37:41;;;;;;;;;;;;;;;16.78;100.00;95999.13;5014581;28;20128;-65
2022/08/17 00:40:09;;;;;;;7.18;5.15;;;;;;;16.75;100.00;96006.31;5016407;28;20410;-66
2022/08/17 00:42:36;;;;;;;6.28;4.95;;;;;;;16.90;100.00;95995.00;5022875;28;20504;-66
2022/08/17 00:45:04;;;;;;;11.25;5.45;;;;;;;17.13;100.00;95988.59;5010897;28;20042;-64
2022/08/17 00:47:29;;;;;;;7.95;5.43;;;;;;;17.32;100.00;95984.25;5021305;28;20132;-66
2022/08/17 00:49:54;;;;;;;11.68;5.78;;;;;;;17.50;100.00;95972.78;5022958;28;20451;-65
2022/08/17 00:52:24;;;;;;;8.95;5.13;;;;;;;17.52;100.00;95968.38;5011690;28;20038;-65
2022/08/17 00:54:52;;;;;;;11.55;6.40;;;;;;;16.27;100.00;95959.81;5018872;28;20486;-66
2022/08/17 00:57:32;;;;;;;9.18;7.40;;;;;;;15.70;100.00;95947.72;5017238;28;20046;-66
2022/08/17 01:00:09;;;;;;;15.02;7.68;;;;;;;15.70;100.00;95951.28;5021051;28;20072;-65
2022/08/17 01:02:39;;;;;;;10.85;6.50;;;;;;;15.84;100.00;95955.78;5020882;28;20077;-66
2022/08/17 01:05:07;;;;;;;9.70;6.68;;;;;;;16.20;100.00;95964.25;5018097;28;20041;-65
2022/08/17 01:07:33;;;;;;;11.27;6.55;;;;;;;16.46;100.00;95974.84;5025057;28;20081;-66
2022/08/17 01:10:02;;;;;;;10.43;6.18;;;;;;;16.48;100.00;95972.47;5020625;28;20041;-66
2022/08/17 01:12:29;;;;;;;11.07;6.00;;;;;;;16.65;100.00;95968.56;5023466;28;20057;-67
2022/08/17 01:14:54;;;;;;;9.35;6.88;;;;;;;16.54;100.00;95971.53;5024272;28;20144;-67
2022/08/17 01:17:20;;;;;;;9.80;5.85;;;;;;;16.67;100.00;95979.22;5013240;28;20170;-66
2022/08/17 01:19:46;;;;;;;7.25;5.85;;;;;;;16.63;100.00;95982.81;5018964;28;20566;-66
2022/08/17 01:22:11;;;;;;;8.35;5.65;;;;;;;16.75;100.00;95978.66;5012874;28;20132;-66
2022/08/17 01:24:41;;;;;;;8.15;5.55;;;;;;;16.80;100.00;95975.41;5017414;28;20041;-67
2022/08/17 01:27:08;;;;;;;8.82;5.88;;;;;;;16.89;100.00;95971.31;5013171;28;20037;-67
2022/08/17 01:29:35;;;;;;;10.02;5.63;;;;;;;17.12;100.00;95967.66;5013366;28;20118;-66
2022/08/17 01:32:04;;;;;;;7.65;4.90;;;;;;;17.29;100.00;95974.81;5020557;28;20431;-67
2022/08/17 01:34:30;;;;;;;11.18;5.30;;;;;;;17.44;100.00;95972.50;5020928;28;20041;-67
2022/08/17 01:36:55;;;;;;;7.57;5.80;;;;;;;17.39;100.00;95973.81;5012223;28;20438;-67
2022/08/17 01:39:34;;;;;;;6.80;5.57;;;;;;;17.33;100.00;95964.44;5008710;28;20065;-67
2022/08/17 01:42:09;;;;;;;7.30;5.45;;;;;;;17.49;100.00;95969.25;5012254;28;20510;-66
2022/08/17 01:44:35;;;;;;;6.47;5.25;;;;;;;17.33;100.00;95966.44;5021954;28;20049;-65
2022/08/17 01:47:00;;;;;;;8.00;5.40;;;;;;;17.27;100.00;95966.16;5020982;28;20044;-65
2022/08/17 01:49:25;;;;;;;10.27;5.55;;;;;;;17.37;100.00;95965.13;5007602;28;20132;-67
2022/08/17 01:51:51;;;;;;;10.02;5.78;;;;;;;17.32;100.00;95967.63;5017082;28;20029;-68
2022/08/17 01:54:18;;;;;;;7.25;5.40;;;;;;;17.34;100.00;95977.09;5037649;28;20033;-66
2022/08/17 01:56:48;;;;;;;8.23;5.82;;;;;;;17.23;100.00;95979.28;5023786;28;20041;-64
2022/08/17 01:59:16;;;;;;;9.23;5.95;;;;;;;16.98;100.00;95977.84;5007076;28;20080;-65
2022/08/17 02:01:42;;;;;;;8.73;6.40;;;;;;;16.68;100.00;95980.78;5023542;28;20041;-65
2022/08/17 02:04:07;;;;;;;16.10;6.22;;;;;;;16.53;100.00;95985.78;5017738;28;20041;-66
2022/08/17 02:06:38;;;;;;;7.07;5.78;;;;;;;16.48;100.00;95995.34;5010933;28;20044;-67
2022/08/17 02:09:06;;;;;;;11.15;5.80;;;;;;;16.53;100.00;95991.31;5006608;28;20053;-62
2022/08/17 02:11:33;;;;;;;7.55;6.13;;;;;;;16.28;100.00;95992.56;5011469;28;20065;-65
2022/08/17 02:14:00;;;;;;;11.60;6.68;;;;;;;15.95;100.00;95994.28;5006894;28;20045;-65
2022/08/17 02:16:25;;;;;;;10.50;6.88;;;;;;;15.91;100.00;95999.09;5016217;28;20042;-64
2022/08/17 02:18:51;;;;;;;10.18;6.75;;;;;;;15.82;100.00;95997.63;5020773;28;20038;-65
2022/08/17 02:21:16;;;;;;;8.40;6.25;;;;;;;15.97;100.00;95991.88;5032651;28;20061;-65
2022/08/17 02:23:46;;;;;;;8.80;6.30;;;;;;;16.12;100.00;95989.69;5033590;28;20108;-65
2022/08/17 02:26:11;;;;;;;10.35;7.10;;;;;;;15.85;100.00;95988.50;5016017;28;20060;-66
2022/08/17 02:28:37;;;;;;;10.85;6.70;;;;;;;16.20;100.00;95996.63;5019619;28;20049;-66
2022/08/17 02:31:08;;;;;;;8.88;6.35;;;;;;;16.31;100.00;95999.22;5019723;28;20038;-65
2022/08/17 02:33:35;;;;;;;9.88;6.60;;;;;;;16.44;100.00;95998.19;5021057;28;20043;-65
2022/08/17 02:36:01;;;;;;;12.43;6.10;;;;;;;16.58;100.00;95997.16;5020241;28;20148;-67
2022/08/17 02:38:26;;;;;;;10.38;6.13;;;;;;;16.77;100.00;95997.59;5008496;28;20048;-66
2022/08/17 02:40:52;;;;;;;8.07;5.88;;;;;;;16.70;100.00;96004.03;5020809;28;20139;-65
2022/08/17 02:43:17;;;;;;;9.27;6.20;;;;;;;16.79;100.00;96004.25;5014676;28;20045;-66
2022/08/17 02:45:43;;;;;;;7.82;6.15;;;;;;;16.83;100.00;96015.28;5025191;28;20041;-67
2022/08/17 02:48:09;;;;;;;10.27;6.18;;;;;;;16.80;100.00;96018.88;5010504;28;20056;-65
2022/08/17 02:50:34;;;;;;;8.40;6.07;;;;;;;16.79;100.00;96028.38;5025103;28;20033;-66
2022/08/17 02:53:00;;;;;;;9.10;6.25;;;;;;;16.68;100.00;96045.16;5025576;28;20529;-67
2022/08/17 02:55:29;;;;;;;13.82;7.05;;;;;;;16.47;100.00;96045.53;5019396;28;20079;-66
2022/08/17 02:57:54;;;;;;;16.30;7.70;;;;;;;16.20;100.00;96060.19;5015655;28;20116;-66
2022/08/17 03:00:24;;;;;;;9.15;6.40;;;;;;;16.07;100.00;96045.41;5020099;28;20474;-66
2022/08/17 03:02:50;;;;;;;10.38;7.90;;;;;;;15.74;100.00;96045.88;5025710;28;20041;-66
2022/08/17 03:05:18;;;;;;;9.38;7.13;;;;;;;15.43;100.00;96048.66;5020392;28;20029;-65
2022/08/17 03:07:44;;;;;;;8.80;6.97;;;;;;;15.11;100.00;96049.03;5028253;28;20052;-66
2022/08/17 03:10:10;;;;;;;11.90;7.13;;;;;;;15.39;100.00;96047.88;5020327;28;20042;-65
2022/08/17 03:12:39;;;;;;;12.07;6.82;;;;;;;15.61;100.00;96055.88;5024039;28;20041;-66
2022/08/17 03:15:06;;;;;;;11.50;7.27;;;;;;;15.61;100.00;96055.88;5019199;28;20057;-66
2022/08/17 03:17:32;;;;;;;8.13;6.63;;;;;;;15.60;100.00;96066.16;5017190;28;20056;-66
2022/08/17 03:19:57;;;;;;;9.48;6.85;;;;;;;15.76;100.00;96071.09;5021351;28;20502;-66
2022/08/17 03:22:25;;;;;;;10.80;7.40;;;;;;;15.97;100.00;96074.72;5018880;28;20140;-66
2022/08/17 03:24:50;;;;;;;12.98;7.05;;;;;;;15.88;100.00;96083.53;5024331;28;20474;-66
2022/08/17 03:27:16;;;;;;;8.27;6.75;;;;;;;15.79;100.00;96084.06;5008986;28;20199;-65
2022/08/17 03:29:41;;;;;;;9.60;6.88;;;;;;;15.82;100.00;96096.25;5025053;28;20045;-65
2022/08/17 03:32:12;;;;;;;10.38;7.00;;;;;;;15.57;100.00;96102.84;5001594;28;20123;-65
2022/08/17 03:34:37;;;;;;;12.18;7.38;;;;;;;15.51;100.00;96109.25;5024410;28;20045;-66
2022/08/17 03:37:03;;;;;;;11.98;7.47;;;;;;;15.31;100.00;96109.13;5018325;28;20111;-66
2022/08/17 03:39:28;;;;;;;14.57;7.90;;;;;;;14.94;100.00;96105.94;5014367;28;20048;-66
2022/08/17 03:42:01;;;;;;;12.63;7.97;;;;;;;14.71;100.00;96104.59;5024329;28;20042;-65
2022/08/17 03:44:26;;;;;;;12.77;7.53;;;;;;;14.55;100.00;96093.31;5018508;28;20037;-65
2022/08/17 03:57:49;;;;;;;11.30;7.93;;;;;;;14.98;100.00;96090.16;5021217;28;20049;-67
2022/08/17 04:00:14;;;;;;;9.43;8.13;;;;;;;15.13;100.00;96101.03;5019009;28;20091;-66
2022/08/17 04:02:41;;;;;;;10.13;7.82;;;;;;;15.35;100.00;96107.88;5023426;28;20046;-66
2022/08/17 04:05:07;;;;;;;11.00;8.02;;;;;;;15.56;100.00;96112.34;5000330;28;20057;-66
2022/08/17 04:07:32;;;;;;;11.95;7.82;;;;;;;15.58;100.00;96122.97;5022257;28;20658;-66
2022/08/17 04:09:58;;;;;;;11.07;7.70;;;;;;;15.47;100.00;96118.34;5016495;28;20052;-64
2022/08/17 04:12:25;;;;;;;10.13;7.85;;;;;;;15.32;100.00;96119.72;5037581;28;20786;-67
2022/08/17 04:14:51;;;;;;;9.75;7.65;;;;;;;15.19;100.00;96111.19;5028742;28;20516;-67
2022/08/17 04:17:16;;;;;;;11.50;8.65;;;;;;;14.77;100.00;96118.72;5014931;28;20502;-66
2022/08/17 04:19:42;;;;;;;11.18;8.68;;;;;;;14.33;100.00;96115.53;5022572;28;20080;-66
2022/08/17 04:22:08;;;;;;;16.85;8.85;;;;;;;14.20;100.00;96119.16;5014333;28;20042;-67
2022/08/17 04:24:35;;;;;;;19.73;9.05;;;;;;;14.22;100.00;96120.31;5017319;28;20041;-67
2022/08/17 04:27:00;;;;;;;11.77;9.30;;;;;;;14.32;100.00;96115.94;5012794;28;20057;-67
2022/08/17 04:29:26;;;;;;;14.43;9.20;;;;;;;14.42;100.00;96106.81;5018686;28;20053;-67
2022/08/17 04:31:52;;;;;;;14.38;9.63;;;;;;;14.34;100.00;96102.53;5023315;28;20474;-65
2022/08/17 04:34:18;;;;;;;14.60;9.27;;;;;;;14.20;100.00;96119.94;5009621;28;20311;-67
2022/08/17 04:36:43;;;;;;;13.88;9.65;;;;;;;14.17;100.00;96120.78;5028205;28;20057;-67
2022/08/17 04:39:08;;;;;;;13.90;9.75;;;;;;;14.27;100.00;96114.38;5022668;28;20039;-67
2022/08/17 04:44:18;;;;;;;10.77;8.93;;;;;;;14.82;100.00;96136.78;5022597;28;20052;-66
2022/08/17 04:46:43;;;;;;;10.95;8.13;;;;;;;15.48;100.00;96149.50;5017360;28;20050;-67
2022/08/17 04:49:10;;;;;;;11.82;8.13;;;;;;;15.53;100.00;96148.25;5011898;28;20049;-66
2022/08/17 04:51:40;;;;;;;10.73;7.45;;;;;;;15.62;100.00;96152.09;5022563;28;20368;-67
2022/08/17 04:54:07;;;;;;;;;;;;;;;15.71;100.00;96150.81;5018260;28;20124;-66
2022/08/17 04:56:33;;;;;;;13.80;7.47;;;;;;;15.81;100.00;96147.94;5020777;28;20370;-67
2022/08/17 04:59:02;;;;;;;9.75;7.28;;;;;;;16.16;100.00;96158.91;5021404;28;20446;-66
2022/08/17 05:01:30;;;;;;;11.95;7.82;;;;;;;16.40;100.00;96163.31;4995499;28;20576;-66
2022/08/17 05:03:58;;;;;;;12.98;8.07;;;;;;;16.55;100.00;96168.59;5012964;28;20046;-65
2022/08/17 05:06:25;;;;;;;11.23;7.70;;;;;;;16.62;100.00;96168.50;5013656;28;20549;-66
2022/08/17 05:08:51;;;;;;;11.65;7.90;;;;;;;16.81;100.00;96169.75;5022931;28;20228;-67
2022/08/17 05:11:17;;;;;;;15.13;7.65;;;;;;;16.98;100.00;96162.41;5017567;28;20136;-66
2022/08/17 05:13:43;;;;;;;15.63;7.47;;;;;;;17.12;100.00;96169.66;5031291;28;20328;-66
2022/08/17 05:16:09;;;;;;;8.68;6.63;;;;;;;17.76;100.00;96165.66;5032167;28;20586;-67
2022/08/17 05:18:37;;;;;;;9.70;6.28;;;;;;;18.98;100.00;96169.69;5021938;28;20045;-67
2022/08/17 05:21:04;;;;;;;10.52;6.90;;;;;;;19.51;100.00;96188.94;5018527;28;20068;-66
2022/08/17 05:23:29;;;;;;;9.35;5.63;;;;;;;20.38;100.00;96183.28;5011145;28;20437;-67
2022/08/17 05:25:55;;;;;;;9.30;5.90;;;;;;;21.02;94.52;96184.50;5021586;28;20084;-66
2022/08/17 05:28:22;;;;;;;10.18;5.35;;;;;;;21.19;91.91;96189.47;5007885;28;20505;-66
2022/08/17 05:30:48;;;;;;;6.47;5.18;;;;;;;21.08;91.25;96196.59;5021611;28;20449;-67
2022/08/17 05:33:20;;;;;;;10.30;5.10;;;;;;;22.13;87.67;96192.53;5015837;28;20042;-65
2022/08/17 05:35:47;;;;;;;8.82;4.88;;;;;;;23.71;80.14;96199.38;5012103;28;20063;-67
2022/08/17 05:38:13;;;;;;;6.63;4.80;;;;;;;23.39;78.25;96197.97;5007322;28;20128;-64
2022/08/17 05:40:40;;;;;;;6.55;5.05;;;;;;;23.00;81.81;96205.94;5014974;28;20140;-64
2022/08/17 05:43:27;;;;;;;6.35;4.90;;;;;;;24.48;72.38;96215.13;5023399;28;20065;-67
2022/08/17 05:46:09;;;;;;;10.23;4.95;;;;;;;24.49;71.10;96208.28;5022023;28;20445;-67
2022/08/17 05:48:44;;;;;;;8.50;5.63;;;;;;;21.71;84.64;96206.00;5042755;28;20110;-67
2022/08/17 05:51:24;;;;;;;7.88;5.88;;;;;;;21.06;90.49;96210.97;5026132;28;20132;-67
2022/08/17 05:54:05;;;;;;;9.80;5.75;;;;;;;22.05;88.71;96224.69;5021655;28;20069;-66
2022/08/17 05:56:48;;;;;;;10.13;5.43;;;;;;;23.30;79.52;96232.28;5011810;28;20136;-66
2022/08/17 05:59:43;;;;;;;7.82;5.22;;;;;;;24.55;72.52;96231.63;5006681;28;20105;-67
2022/08/17 06:02:41;;;;;;;9.25;4.97;;;;;;;25.38;71.16;96245.25;5016503;28;20049;-65
2022/08/17 06:05:11;;;;;;;7.18;5.20;;;;;;;24.38;72.61;96235.97;5020501;28;20060;-65
2022/08/17 06:08:01;;;;;;;8.38;4.60;;;;;;;24.92;71.86;96239.88;5020066;28;20045;-65
2022/08/17 06:10:51;;;;;;;8.60;5.78;;;;;;;23.63;76.75;96228.88;5008844;28;20041;-65
2022/08/17 06:13:42;;;;;;;6.45;5.40;;;;;;;21.90;88.26;96218.88;5009314;28;20041;-66
2022/08/17 06:16:12;;;;;;;8.32;6.00;;;;;;;21.02;94.79;96227.03;5025381;28;20041;-65
2022/08/17 06:19:23;;;;;;;8.68;5.40;;;;;;;21.93;91.31;96215.16;5039059;28;20041;-65
2022/08/17 06:21:52;;;;;;;11.60;5.55;;;;;;;21.75;92.94;96221.38;4995913;28;20453;-65
2022/08/17 06:24:27;;;;;;;10.38;5.38;;;;;;;22.64;89.70;96212.97;5015905;28;20110;-66
2022/08/17 06:26:56;;;;;;;7.25;4.97;;;;;;;24.16;81.01;96199.81;5018565;28;20099;-65
2022/08/17 06:29:36;;;;;;;10.05;4.88;;;;;;;26.06;69.89;96210.19;5016003;28;21563;-61
2022/08/17 06:32:04;;;;;;;6.95;4.80;;;;;;;26.79;64.17;96210.66;5020839;28;20034;-61
2022/08/17 06:34:31;;;;;;;13.40;5.13;;;;;;;27.01;64.33;96218.66;5013100;28;20037;-62
2022/08/17 06:37:02;;;;;;;6.80;4.15;;;;;;;28.54;57.86;96212.03;5019269;28;20041;-63
2022/08/17 06:39:27;;;;;;;5.85;4.30;;;;;;;28.70;53.43;96225.53;5017963;28;20557;-64
2022/08/17 06:42:24;;;;;;;7.17;4.77;;;;;;;27.45;57.36;96223.38;5021148;28;20041;-65
2022/08/17 06:44:53;;;;;;;5.40;3.72;;;;;;;28.11;55.25;96229.56;5020685;28;20343;-65
2022/08/17 06:47:54;;;;;;;6.68;3.63;;;;;;;28.29;52.91;96234.09;5010621;28;20038;-63
2022/08/17 06:50:41;;;;;;;6.78;4.30;;;;;;;28.43;52.12;96229.59;4995667;28;20056;-65
2022/08/17 06:53:18;;;;;;;13.38;4.10;;;;;;;28.36;52.11;96221.56;5015983;28;20037;-63
2022/08/17 06:56:08;;;;;;;5.85;3.55;;;;;;;29.44;49.70;96232.44;5004492;28;20064;-64
2022/08/17 06:58:36;;;;;;;5.85;3.50;;;;;;;30.15;47.03;96234.50;5015355;28;20041;-64
2022/08/17 07:01:16;;;;;;;6.78;3.55;;;;;;;30.53;44.78;96240.75;5004010;28;20387;-67
2022/08/17 07:03:53;;;;;;;5.75;3.80;;;;;;;28.59;48.70;96231.03;5016333;28;20056;-63
2022/08/17 07:06:27;;;;;;;7.68;3.95;;;;;;;29.93;45.81;96229.59;5017701;28;20048;-61
2022/08/17 07:09:27;;;;;;;6.53;3.70;;;;;;;31.02;42.33;96232.81;5020909;28;20107;-63
2022/08/17 07:11:59;;;;;;;5.07;3.17;;;;;;;30.10;42.81;96229.63;5021068;28;20045;-64
2022/08/17 07:14:38;;;;;;;7.07;3.60;;;;;;;30.40;43.32;96237.69;5016535;28;20877;-63
2022/08/17 07:17:09;;;;;;;;;;;;;;;28.01;48.25;96242.22;5014137;28;20091;-65
2022/08/17 07:19:41;;;;;;;5.43;4.13;;;;;;;24.75;59.70;96235.91;4999630;28;19925;-63
2022/08/17 07:22:24;;;;;;;7.95;4.68;;;;;;;23.99;65.53;96227.34;5013689;28;20048;-64
2022/08/17 07:25:04;;;;;;;7.35;3.83;;;;;;;27.12;55.49;96220.88;5016454;28;20116;-65
2022/08/17 07:27:36;;;;;;;8.98;4.97;;;;;;;28.29;49.91;96219.22;5025488;28;20077;-65
2022/08/17 07:30:34;;;;;;;10.30;4.00;;;;;;;28.27;49.89;96210.50;5025078;28;20056;-64
2022/08/17 07:33:10;;;;;;;8.32;3.83;;;;;;;29.11;48.08;96210.41;5006999;28;20493;-63
2022/08/17 07:35:40;;;;;;;9.70;3.50;;;;;;;30.55;44.44;96215.59;5018164;28;20053;-65
2022/08/17 07:38:13;;;;;;;7.70;3.30;;;;;;;31.07;41.43;96219.97;5015761;28;20044;-65
2022/08/17 07:40:41;;;;;;;5.10;3.72;;;;;;;31.68;40.80;96220.34;5021519;28;20136;-63
2022/08/17 07:43:10;;;;;;;6.50;3.55;;;;;;;31.55;40.19;96224.50;5018043;28;20061;-63
2022/08/17 07:48:37;;;;;;;5.22;3.33;;;;;;;32.68;38.38;96221.09;5020546;28;20554;-64
2022/08/17 07:51:24;;;;;;;7.45;4.30;;;;;;;33.33;36.64;96224.38;5019905;28;20479;-64
2022/08/17 07:53:52;;;;;;;4.60;3.10;;;;;;;33.20;36.50;96229.94;5022198;28;20041;-64
2022/08/17 07:56:37;;;;;;;7.22;3.45;;;;;;;33.61;34.43;96229.75;5017449;28;20057;-63
2022/08/17 07:59:11;;;;;;;7.13;4.43;;;;;;;34.65;32.54;96242.88;5020699;28;20053;-66
2022/08/17 08:01:38;;;;;;;4.07;2.97;;;;;;;31.82;37.24;96245.50;5025052;28;20048;-63
2022/08/17 08:04:26;;;;;;;7.93;3.30;;;;;;;32.17;37.08;96214.97;5026095;28;20661;-66
2022/08/17 08:06:56;;;;;;;6.43;4.50;;;;;;;32.74;36.29;96207.63;5029154;28;20486;-64
2022/08/17 08:09:28;;;;;;;4.30;2.85;;;;;;;32.99;35.51;96207.69;5016892;28;20048;-65
2022/08/17 08:11:54;;;;;;;7.40;3.88;;;;;;;34.03;34.17;96223.81;5021190;28;20037;-65
2022/08/17 08:14:24;;;;;;;8.93;3.47;;;;;;;33.92;34.17;96215.47;5013068;28;20452;-63
2022/08/17 08:17:06;;;;;;;6.82;3.72;;;;;;;34.85;31.43;96210.25;5005382;28;20095;-65
2022/08/17 08:19:32;;;;;;;7.05;3.10;;;;;;;34.37;32.08;96201.41;5019847;28;20045;-63
2022/08/17 08:22:09;;;;;;;7.32;2.75;;;;;;;35.08;30.67;96209.84;5020650;28;20045;-64
2022/08/17 08:25:02;;;;;;;6.80;2.90;;;;;;;35.59;29.04;96215.38;5022695;28;20065;-65
2022/08/17 08:27:43;;;;;;;4.82;2.53;;;;;;;35.21;27.73;96221.28;5016396;28;20084;-64
2022/08/17 08:30:13;;;;;;;5.85;2.95;;;;;;;30.43;35.09;96202.72;5016836;28;20068;-65
2022/08/17 08:33:02;;;;;;;4.68;3.05;;;;;;;30.50;36.77;96205.06;5022069;28;20041;-63
2022/08/17 08:35:36;;;;;;;4.68;3.08;;;;;;;33.33;31.76;96198.81;5017259;28;20505;-63
2022/08/17 08:38:26;;;;;;;5.68;3.17;;;;;;;34.38;30.12;96202.19;5022279;28;20040;-64
2022/08/17 08:41:00;;;;;;;5.32;3.10;;;;;;;33.33;30.87;96213.00;5021468;28;20046;-63
2022/08/17 08:43:30;;;;;;;5.20;3.13;;;;;;;31.01;34.68;96213.56;5013764;28;20683;-64
2022/08/17 08:46:34;;;;;;;6.28;3.67;;;;;;;27.91;41.18;96212.69;5022245;28;20041;-62
2022/08/17 08:49:20;;;;;;;4.60;3.17;;;;;;;30.73;37.44;96214.31;5018488;28;20037;-65
2022/08/17 08:51:54;;;;;;;6.28;2.67;;;;;;;30.95;37.11;96210.72;5015830;28;20037;-66
2022/08/17 08:54:19;;;;;;;8.75;3.17;;;;;;;32.50;34.86;96216.03;5016207;28;20127;-66
2022/08/17 08:57:02;;;;;;;5.22;3.42;;;;;;;32.82;34.19;96224.84;5026828;28;20069;-63
2022/08/17 08:59:50;;;;;;;7.63;3.53;;;;;;;34.44;30.82;96234.13;5012904;28;20071;-63
2022/08/17 09:02:37;;;;;;;6.32;2.60;;;;;;;34.31;30.83;96242.59;4969815;28;20132;-66
2022/08/17 09:05:21;;;;;;;5.32;2.90;;;;;;;34.38;30.17;96239.91;5019407;28;20402;-66
2022/08/17 09:08:00;;;;;;;4.88;2.90;;;;;;;33.33;32.00;96239.34;5019514;28;20041;-65
2022/08/17 09:10:58;;;;;;;6.90;3.08;;;;;;;33.38;31.76;96231.31;5018694;28;20114;-64
2022/08/17 09:13:29;;;;;;;4.75;3.05;;;;;;;32.45;32.88;96231.00;5016891;28;20157;-64
2022/08/17 09:16:05;;;;;;;6.10;3.30;;;;;;;32.00;34.30;96237.72;5020841;28;20041;-63
2022/08/17 09:18:34;;;;;;;4.03;3.28;;;;;;;32.92;34.06;96240.22;5019336;28;20053;-64
2022/08/17 09:21:13;;;;;;;8.00;3.80;;;;;;;31.15;36.72;96248.47;5000857;28;20729;-60
2022/08/17 09:23:48;;;;;;;5.78;3.63;;;;;;;31.39;35.86;96245.88;5020263;28;20053;-61
2022/08/17 09:26:29;;;;;;;7.88;3.58;;;;;;;31.38;36.27;96246.38;5020542;28;20021;-65
2022/08/17 09:29:00;;;;;;;7.20;3.28;;;;;;;30.58;37.58;96254.13;5039040;28;20075;-64
2022/08/17 09:31:34;;;;;;;7.88;3.90;;;;;;;30.88;37.38;96240.28;5017289;28;20041;-63
2022/08/17 09:34:04;;;;;;;5.60;3.90;;;;;;;31.29;36.11;96238.19;5020737;28;20045;-64
2022/08/17 09:36:46;;;;;;;9.75;4.60;;;;;;;30.61;37.50;96243.84;5001463;28;20052;-64
2022/08/17 09:39:19;;;;;;;6.97;3.65;;;;;;;31.26;36.71;96245.66;5014374;28;20053;-65
2022/08/17 09:41:59;;;;;;;8.13;3.53;;;;;;;31.09;36.77;96242.84;5020573;28;20057;-61
2022/08/17 09:44:50;;;;;;;7.38;3.80;;;;;;;31.37;36.12;96236.38;5014633;28;20046;-63
2022/08/17 09:47:25;;;;;;;8.93;3.90;;;;;;;30.90;36.28;96236.13;5014574;28;20045;-62
2022/08/17 09:49:58;;;;;;;6.53;4.13;;;;;;;29.88;39.03;96238.81;5019994;28;20125;-63
2022/08/17 09:52:27;;;;;;;6.97;3.50;;;;;;;30.87;37.12;96235.88;5014747;28;20449;-64
2022/08/17 09:54:55;;;;;;;12.40;3.23;;;;;;;32.33;35.12;96238.84;5036977;28;20069;-63
2022/08/17 09:57:32;;;;;;;7.72;3.85;;;;;;;32.17;34.82;96238.41;5026061;28;20136;-62
2022/08/17 10:00:09;;;;;;;10.50;3.42;;;;;;;32.15;34.40;96238.16;5017052;28;20342;-62
2022/08/17 10:02:50;;;;;;;7.55;3.50;;;;;;;30.28;37.52;96234.78;5019720;28;20053;-61
2022/08/17 10:05:20;;;;;;;7.65;3.90;;;;;;;30.84;37.49;96230.50;5012438;28;20047;-65
2022/08/17 10:07:58;;;;;;;7.97;3.55;;;;;;;31.33;36.01;96233.81;5019848;28;20502;-63
2022/08/17 10:10:49;;;;;;;10.32;3.70;;;;;;;32.30;35.03;96231.38;5016581;28;20220;-61
2022/08/17 10:13:28;;;;;;;6.53;3.22;;;;;;;32.42;34.20;96226.41;4991158;28;20056;-65
2022/08/17 10:16:11;;;;;;;6.80;3.33;;;;;;;32.93;33.75;96229.63;5017293;28;20037;-63
2022/08/17 10:19:00;;;;;;;6.07;3.58;;;;;;;33.61;32.45;96228.97;5007897;28;20502;-64
2022/08/17 10:27:11;;;;;;;6.97;3.38;;;;;;;34.24;32.18;96226.94;5016620;28;20039;-67
2022/08/17 10:30:03;;;;;;;5.55;2.97;;;;;;;34.85;30.73;96236.59;5013473;28;20562;-63
2022/08/17 10:32:34;;;;;;;8.18;3.42;;;;;;;34.24;32.09;96230.53;5015676;28;20080;-63
2022/08/17 10:35:19;;;;;;;4.90;3.30;;;;;;;30.67;37.87;96222.78;5022567;28;20087;-64
2022/08/17 10:38:10;;;;;;;5.53;3.38;;;;;;;31.21;36.77;96220.97;5018915;28;20403;-61
2022/08/17 10:41:17;;;;;;;6.25;3.10;;;;;;;30.35;38.29;96227.13;5017629;28;20048;-66
2022/08/17 10:44:22;;;;;;;5.88;3.70;;;;;;;29.77;39.77;96213.38;4953771;28;20041;-62
2022/08/17 10:47:01;;;;;;;6.28;4.10;;;;;;;29.77;40.52;96216.19;5025545;28;20056;-64
2022/08/17 10:49:35;;;;;;;6.93;4.00;;;;;;;29.71;40.91;96216.13;4996741;28;20132;-62
2022/08/17 10:52:25;;;;;;;7.00;3.72;;;;;;;30.53;39.25;96214.56;5019443;28;20053;-63
2022/08/17 10:54:51;;;;;;;8.18;3.65;;;;;;;30.81;38.62;96226.66;5016146;28;20049;-61
2022/08/17 10:57:26;;;;;;;6.25;4.05;;;;;;;30.20;39.51;96233.75;5013974;28;20052;-63
2022/08/17 10:59:56;;;;;;;5.60;3.42;;;;;;;30.53;39.01;96240.00;5018279;28;20037;-64
2022/08/17 11:02:36;;;;;;;8.25;3.72;;;;;;;29.97;39.73;96238.56;4987378;28;20048;-63
2022/08/17 11:05:16;;;;;;;8.05;4.20;;;;;;;29.55;40.75;96228.91;5016435;28;20525;-67
2022/08/17 11:08:27;;;;;;;9.52;4.15;;;;;;;29.06;41.93;96228.81;5022544;28;20053;-63
2022/08/17 11:11:20;;;;;;;6.55;3.83;;;;;;;29.11;41.87;96224.50;4951559;28;20051;-61
2022/08/17 11:14:16;;;;;;;11.63;5.00;;;;;;;28.90;42.73;96226.66;5002304;28;20044;-64
2022/08/17 11:16:57;;;;;;;7.05;4.00;;;;;;;29.00;42.99;96225.22;5017908;28;20037;-64
2022/08/17 11:19:54;;;;;;;10.40;4.35;;;;;;;29.11;42.18;96228.09;5017797;28;20053;-62
2022/08/17 11:22:51;;;;;;;6.32;3.72;;;;;;;29.05;42.71;96227.28;5004151;28;20034;-63
2022/08/17 11:25:19;;;;;;;6.97;3.80;;;;;;;29.09;43.40;96225.00;5017281;28;20041;-64
2022/08/17 11:27:52;;;;;;;6.80;3.60;;;;;;;29.23;43.55;96225.41;5021445;28;20056;-64
2022/08/17 11:30:46;;;;;;;7.38;4.00;;;;;;;29.02;43.93;96230.34;5018811;28;20051;-64
2022/08/17 11:33:30;;;;;;;9.85;4.53;;;;;;;28.93;43.84;96229.25;5018369;28;20037;-61
2022/08/17 11:36:20;;;;;;;9.95;4.90;;;;;;;28.56;44.46;96230.00;5022413;28;20045;-64
2022/08/17 11:39:16;;;;;;;11.80;7.55;;;;;;;28.65;44.50;96217.00;5022198;28;20036;-64
2022/08/17 11:42:10;;;;;;;8.40;4.00;;;;;;;28.92;43.48;96226.97;5022692;28;20053;-63
2022/08/17 11:44:54;;;;;;;7.80;4.93;;;;;;;28.80;44.46;96223.28;5022753;28;20047;-63
2022/08/17 11:53:38;;;;;;;10.18;4.43;;;;;;;28.87;45.00;96210.78;5017934;28;20073;-64
2022/08/17 11:56:04;;;;;;;6.70;4.30;;;;;;;29.30;42.16;96216.47;5015735;28;20063;-68
2022/08/17 11:58:29;;;;;;;5.88;3.78;;;;;;;29.26;43.19;96215.91;5023260;28;20060;-64
2022/08/17 12:00:59;;;;;;;7.20;4.07;;;;;;;29.04;43.10;96213.69;5023512;28;20048;-66
2022/08/17 12:03:31;;;;;;;8.02;4.40;;;;;;;28.75;44.33;96201.47;5018039;28;20788;-65
2022/08/17 12:06:22;;;;;;;6.43;4.10;;;;;;;28.54;44.84;96201.56;5032215;28;20041;-62
2022/08/17 12:08:57;;;;;;;8.55;4.47;;;;;;;28.44;45.25;96191.72;5023218;28;20077;-62
2022/08/17 12:11:36;;;;;;;7.25;4.03;;;;;;;28.65;45.74;96177.56;5018047;28;20121;-59
2022/08/17 12:14:03;;;;;;;10.90;5.65;;;;;;;28.88;43.94;96189.75;5018827;28;20129;-68
2022/08/17 12:16:28;;;;;;;9.02;3.97;;;;;;;28.56;46.40;96190.56;5019857;28;20053;-63
2022/08/17 12:18:57;;;;;;;5.35;4.10;;;;;;;28.57;46.61;96194.91;5003319;28;21759;-64
2022/08/17 12:21:54;;;;;;;9.68;4.47;;;;;;;28.87;45.45;96182.59;5010573;28;20581;-63
2022/08/17 12:24:22;;;;;;;6.75;4.35;;;;;;;28.98;46.08;96186.25;5012762;28;20044;-64